sensor_id;sensor_type;location;lat;lon;timestamp;P1;durP1;ratioP1;P2;durP2;ratioP2
9940;SDS011;5009;50.656;7.188;2024-03-02T05:01:28;3.50;;;3.20;;
9940;SDS011;5009;50.656;7.188;2024-03-02T05:03:53;3.63;;;3.20;;
9940;SDS011;5009;50.656;7.188;2024-03-02T05:06:19;3.70;;;3.40;;
9940;SDS011;5009;50.656;7.188;2024-03-02T05:08:45;3.50;;;3.20;;
9940;SDS011;5009;50.656;7.188;2024-03-02T05:11:10;4.87;;;3.50;;
9940;SDS011;5009;50.656;7.188;2024-03-02T05:13:56;5.70;;;3.47;;
9940;SDS011;5009;50.656;7.188;2024-03-02T05:16:21;3.93;;;3.60;;
9940;SDS011;5009;50.656;7.188;2024-03-02T05:18:47;4.27;;;3.70;;
9940;SDS011;5009;50.656;7.188;2024-03-02T05:21:13;4.00;;;3.60;;
9940;SDS011;5009;50.656;7.188;2024-03-02T05:23:38;4.07;;;3.50;;
9940;SDS011;5009;50.656;7.188;2024-03-02T05:26:04;4.13;;;3.73;;
9940;SDS011;5009;50.656;7.188;2024-03-02T05:28:29;4.47;;;3.73;;
9940;SDS011;5009;50.656;7.188;2024-03-02T05:30:55;3.50;;;3.10;;
9940;SDS011;5009;50.656;7.188;2024-03-02T05:33:21;3.90;;;3.60;;
9940;SDS011;5009;50.656;7.188;2024-03-02T05:35:47;4.57;;;3.33;;
9940;SDS011;5009;50.656;7.188;2024-03-02T05:38:15;6.43;;;3.17;;
9940;SDS011;5009;50.656;7.188;2024-03-02T05:40:40;3.67;;;3.17;;
9940;SDS011;5009;50.656;7.188;2024-03-02T05:43:06;3.30;;;3.00;;
9940;SDS011;5009;50.656;7.188;2024-03-02T05:45:31;4.10;;;3.70;;
9940;SDS011;5009;50.656;7.188;2024-03-02T05:47:57;3.47;;;3.10;;
9940;SDS011;5009;50.656;7.188;2024-03-02T05:50:22;4.50;;;3.10;;
9940;SDS011;5009;50.656;7.188;2024-03-02T05:52:48;4.23;;;3.27;;
9940;SDS011;5009;50.656;7.188;2024-03-02T05:55:13;3.67;;;3.00;;
9940;SDS011;5009;50.656;7.188;2024-03-02T05:57:39;3.37;;;2.87;;
9940;SDS011;5009;50.656;7.188;2024-03-02T06:00:08;3.00;;;2.70;;
9940;SDS011;5009;50.656;7.188;2024-03-02T06:02:34;3.60;;;3.30;;
9940;SDS011;5009;50.656;7.188;2024-03-02T06:05:02;3.40;;;3.10;;
9940;SDS011;5009;50.656;7.188;2024-03-02T06:07:29;2.77;;;2.50;;
9940;SDS011;5009;50.656;7.188;2024-03-02T06:09:55;3.00;;;2.80;;
9940;SDS011;5009;50.656;7.188;2024-03-02T06:12:20;2.80;;;2.60;;
9940;SDS011;5009;50.656;7.188;2024-03-02T06:14:46;3.67;;;3.03;;
9940;SDS011;5009;50.656;7.188;2024-03-02T06:17:11;3.53;;;3.23;;
9940;SDS011;5009;50.656;7.188;2024-03-02T06:19:37;3.40;;;3.10;;
9940;SDS011;5009;50.656;7.188;2024-03-02T06:22:02;3.13;;;2.73;;
9940;SDS011;5009;50.656;7.188;2024-03-02T06:24:28;7.07;;;3.10;;
9940;SDS011;5009;50.656;7.188;2024-03-02T06:26:54;4.53;;;2.80;;
9940;SDS011;5009;50.656;7.188;2024-03-02T06:29:20;3.13;;;2.83;;
9940;SDS011;5009;50.656;7.188;2024-03-02T06:31:46;4.87;;;2.80;;
9940;SDS011;5009;50.656;7.188;2024-03-02T06:34:12;4.20;;;3.10;;
9940;SDS011;5009;50.656;7.188;2024-03-02T06:36:38;4.43;;;3.20;;
9940;SDS011;5009;50.656;7.188;2024-03-02T06:39:05;3.83;;;3.17;;
9940;SDS011;5009;50.656;7.188;2024-03-02T06:41:30;3.00;;;2.80;;
9940;SDS011;5009;50.656;7.188;2024-03-02T06:43:56;3.20;;;2.73;;
9940;SDS011;5009;50.656;7.188;2024-03-02T06:46:25;3.43;;;3.13;;
9940;SDS011;5009;50.656;7.188;2024-03-02T06:48:51;3.00;;;2.70;;
9940;SDS011;5009;50.656;7.188;2024-03-02T06:51:16;5.67;;;2.57;;
9940;SDS011;5009;50.656;7.188;2024-03-02T06:53:42;4.03;;;3.23;;
9940;SDS011;5009;50.656;7.188;2024-03-02T06:56:07;3.83;;;2.90;;
9940;SDS011;5009;50.656;7.188;2024-03-02T06:58:33;4.40;;;3.53;;
9940;SDS011;5009;50.656;7.188;2024-03-02T07:00:58;4.30;;;3.30;;
9940;SDS011;5009;50.656;7.188;2024-03-02T07:03:25;3.80;;;3.40;;
9940;SDS011;5009;50.656;7.188;2024-03-02T07:05:51;3.40;;;3.10;;
9940;SDS011;5009;50.656;7.188;2024-03-02T07:08:16;3.60;;;3.17;;
9940;SDS011;5009;50.656;7.188;2024-03-02T07:10:42;3.57;;;3.23;;
9940;SDS011;5009;50.656;7.188;2024-03-02T07:13:07;4.90;;;3.10;;
9940;SDS011;5009;50.656;7.188;2024-03-02T07:15:33;3.70;;;3.03;;
9940;SDS011;5009;50.656;7.188;2024-03-02T07:18:02;3.30;;;3.00;;
9940;SDS011;5009;50.656;7.188;2024-03-02T07:20:28;3.20;;;2.90;;
9940;SDS011;5009;50.656;7.188;2024-03-02T07:22:53;3.20;;;2.80;;
9940;SDS011;5009;50.656;7.188;2024-03-02T07:25:19;4.20;;;2.90;;
9940;SDS011;5009;50.656;7.188;2024-03-02T07:27:44;4.33;;;2.90;;
9940;SDS011;5009;50.656;7.188;2024-03-02T07:30:13;2.80;;;2.60;;
9940;SDS011;5009;50.656;7.188;2024-03-02T07:32:39;3.60;;;2.77;;
9940;SDS011;5009;50.656;7.188;2024-03-02T07:35:06;3.23;;;2.90;;
9940;SDS011;5009;50.656;7.188;2024-03-02T07:37:32;3.17;;;2.87;;
9940;SDS011;5009;50.656;7.188;2024-03-02T07:39:58;4.25;;;3.17;;
9940;SDS011;5009;50.656;7.188;2024-03-02T07:42:23;2.90;;;2.70;;
9940;SDS011;5009;50.656;7.188;2024-03-02T07:44:49;3.05;;;2.78;;
9940;SDS011;5009;50.656;7.188;2024-03-02T07:47:14;3.28;;;2.97;;
9940;SDS011;5009;50.656;7.188;2024-03-02T07:49:40;3.15;;;2.95;;
9940;SDS011;5009;50.656;7.188;2024-03-02T07:52:06;3.17;;;2.88;;
9940;SDS011;5009;50.656;7.188;2024-03-02T07:54:32;3.03;;;2.83;;
9940;SDS011;5009;50.656;7.188;2024-03-02T07:56:57;3.42;;;3.15;;
9940;SDS011;5009;50.656;7.188;2024-03-02T07:59:23;3.35;;;3.05;;
9940;SDS011;5009;50.656;7.188;2024-03-02T08:01:49;3.38;;;3.08;;
9940;SDS011;5009;50.656;7.188;2024-03-02T08:04:20;3.63;;;3.33;;
9940;SDS011;5009;50.656;7.188;2024-03-02T08:06:45;4.18;;;3.42;;
9940;SDS011;5009;50.656;7.188;2024-03-02T08:09:12;3.25;;;2.95;;
9940;SDS011;5009;50.656;7.188;2024-03-02T08:11:37;5.35;;;3.45;;
9940;SDS011;5009;50.656;7.188;2024-03-02T08:14:03;3.40;;;3.10;;
9940;SDS011;5009;50.656;7.188;2024-03-02T08:16:29;3.47;;;3.10;;
9940;SDS011;5009;50.656;7.188;2024-03-02T08:18:54;4.15;;;3.45;;
9940;SDS011;5009;50.656;7.188;2024-03-02T08:21:23;2.88;;;2.65;;
9940;SDS011;5009;50.656;7.188;2024-03-02T08:23:48;3.17;;;2.88;;
9940;SDS011;5009;50.656;7.188;2024-03-02T08:26:14;4.15;;;3.10;;
9940;SDS011;5009;50.656;7.188;2024-03-02T08:28:40;3.05;;;2.78;;
9940;SDS011;5009;50.656;7.188;2024-03-02T08:31:06;2.97;;;2.75;;
9940;SDS011;5009;50.656;7.188;2024-03-02T08:33:32;3.38;;;3.03;;
9940;SDS011;5009;50.656;7.188;2024-03-02T08:35:57;3.25;;;2.95;;
9940;SDS011;5009;50.656;7.188;2024-03-02T08:38:24;3.10;;;2.80;;
9940;SDS011;5009;50.656;7.188;2024-03-02T08:40:49;3.25;;;2.60;;
9940;SDS011;5009;50.656;7.188;2024-03-02T08:43:15;3.00;;;2.70;;
9940;SDS011;5009;50.656;7.188;2024-03-02T08:45:41;2.80;;;2.60;;
9940;SDS011;5009;50.656;7.188;2024-03-02T08:48:09;3.67;;;2.80;;
9940;SDS011;5009;50.656;7.188;2024-03-02T08:50:35;2.72;;;2.53;;
9940;SDS011;5009;50.656;7.188;2024-03-02T08:53:01;3.80;;;2.80;;
9940;SDS011;5009;50.656;7.188;2024-03-02T08:55:28;2.63;;;2.42;;
9940;SDS011;5009;50.656;7.188;2024-03-02T08:57:54;3.10;;;2.80;;
9940;SDS011;5009;50.656;7.188;2024-03-02T09:00:20;3.43;;;3.10;;
9940;SDS011;5009;50.656;7.188;2024-03-02T09:02:46;3.20;;;2.90;;
9940;SDS011;5009;50.656;7.188;2024-03-02T09:05:12;3.33;;;2.87;;
9940;SDS011;5009;50.656;7.188;2024-03-02T09:07:37;3.10;;;2.80;;
9940;SDS011;5009;50.656;7.188;2024-03-02T09:10:06;3.43;;;2.80;;
9940;SDS011;5009;50.656;7.188;2024-03-02T09:12:32;3.27;;;2.97;;
9940;SDS011;5009;50.656;7.188;2024-03-02T09:14:59;2.77;;;2.57;;
9940;SDS011;5009;50.656;7.188;2024-03-02T09:17:25;3.73;;;3.00;;
9940;SDS011;5009;50.656;7.188;2024-03-02T09:19:51;4.67;;;3.07;;
9940;SDS011;5009;50.656;7.188;2024-03-02T09:22:17;2.97;;;2.77;;
9940;SDS011;5009;50.656;7.188;2024-03-02T09:24:43;4.23;;;2.97;;
9940;SDS011;5009;50.656;7.188;2024-03-02T09:27:09;2.97;;;2.77;;
9940;SDS011;5009;50.656;7.188;2024-03-02T09:29:35;3.20;;;2.90;;
9940;SDS011;5009;50.656;7.188;2024-03-02T09:32:01;3.50;;;3.20;;
9940;SDS011;5009;50.656;7.188;2024-03-02T09:34:26;5.43;;;3.03;;
9940;SDS011;5009;50.656;7.188;2024-03-02T09:36:52;3.67;;;3.13;;
9940;SDS011;5009;50.656;7.188;2024-03-02T09:39:17;2.90;;;2.60;;
9940;SDS011;5009;50.656;7.188;2024-03-02T09:41:43;3.00;;;2.70;;
9940;SDS011;5009;50.656;7.188;2024-03-02T09:44:09;3.00;;;2.70;;
9940;SDS011;5009;50.656;7.188;2024-03-02T09:46:35;3.00;;;2.80;;
9940;SDS011;5009;50.656;7.188;2024-03-02T09:49:01;3.57;;;2.80;;
9940;SDS011;5009;50.656;7.188;2024-03-02T09:51:27;3.10;;;2.80;;
9940;SDS011;5009;50.656;7.188;2024-03-02T09:53:53;2.83;;;2.63;;
9940;SDS011;5009;50.656;7.188;2024-03-02T09:56:20;3.27;;;2.63;;
9940;SDS011;5009;50.656;7.188;2024-03-02T09:58:47;3.57;;;2.70;;
9940;SDS011;5009;50.656;7.188;2024-03-02T10:01:12;3.00;;;2.70;;
9940;SDS011;5009;50.656;7.188;2024-03-02T10:03:38;3.10;;;2.77;;
9940;SDS011;5009;50.656;7.188;2024-03-02T10:06:23;3.13;;;2.80;;
9940;SDS011;5009;50.656;7.188;2024-03-02T10:08:51;3.23;;;2.73;;
9940;SDS011;5009;50.656;7.188;2024-03-02T10:11:28;3.70;;;2.73;;
9940;SDS011;5009;50.656;7.188;2024-03-02T10:14:09;3.30;;;3.00;;
9940;SDS011;5009;50.656;7.188;2024-03-02T10:16:44;4.03;;;3.33;;
9940;SDS011;5009;50.656;7.188;2024-03-02T10:19:17;4.33;;;3.00;;
9940;SDS011;5009;50.656;7.188;2024-03-02T10:21:44;4.63;;;3.10;;
9940;SDS011;5009;50.656;7.188;2024-03-02T10:24:10;2.67;;;2.47;;
9940;SDS011;5009;50.656;7.188;2024-03-02T10:26:37;2.90;;;2.60;;
9940;SDS011;5009;50.656;7.188;2024-03-02T10:29:03;4.00;;;2.70;;
9940;SDS011;5009;50.656;7.188;2024-03-02T10:31:29;3.80;;;2.70;;
9940;SDS011;5009;50.656;7.188;2024-03-02T10:33:55;4.37;;;2.67;;
9940;SDS011;5009;50.656;7.188;2024-03-02T10:36:20;3.60;;;2.93;;
9940;SDS011;5009;50.656;7.188;2024-03-02T10:38:46;3.47;;;3.20;;
9940;SDS011;5009;50.656;7.188;2024-03-02T10:41:16;3.03;;;2.77;;
9940;SDS011;5009;50.656;7.188;2024-03-02T10:43:43;2.97;;;2.67;;
9940;SDS011;5009;50.656;7.188;2024-03-02T10:46:09;3.00;;;2.63;;
9940;SDS011;5009;50.656;7.188;2024-03-02T10:48:36;4.20;;;2.77;;
9940;SDS011;5009;50.656;7.188;2024-03-02T10:51:05;2.63;;;2.43;;
9940;SDS011;5009;50.656;7.188;2024-03-02T10:53:31;4.37;;;2.80;;
9940;SDS011;5009;50.656;7.188;2024-03-02T10:55:57;3.10;;;2.80;;
9940;SDS011;5009;50.656;7.188;2024-03-02T10:58:31;3.23;;;2.93;;
9940;SDS011;5009;50.656;7.188;2024-03-02T11:00:59;3.13;;;2.50;;
9940;SDS011;5009;50.656;7.188;2024-03-02T11:03:28;4.93;;;2.37;;
9940;SDS011;5009;50.656;7.188;2024-03-02T11:05:56;2.50;;;2.30;;
9940;SDS011;5009;50.656;7.188;2024-03-02T11:08:23;2.97;;;2.23;;
9940;SDS011;5009;50.656;7.188;2024-03-02T11:10:54;2.20;;;2.00;;
9940;SDS011;5009;50.656;7.188;2024-03-02T11:13:31;3.33;;;3.10;;
9940;SDS011;5009;50.656;7.188;2024-03-02T11:16:09;2.37;;;1.97;;
9940;SDS011;5009;50.656;7.188;2024-03-02T11:18:43;2.43;;;1.93;;
9940;SDS011;5009;50.656;7.188;2024-03-02T11:21:08;6.10;;;5.70;;
9940;SDS011;5009;50.656;7.188;2024-03-02T11:23:34;2.27;;;2.00;;
9940;SDS011;5009;50.656;7.188;2024-03-02T11:28:45;2.30;;;2.10;;
9940;SDS011;5009;50.656;7.188;2024-03-02T11:31:11;5.83;;;1.60;;
9940;SDS011;5009;50.656;7.188;2024-03-02T11:33:37;1.90;;;1.70;;
9940;SDS011;5009;50.656;7.188;2024-03-02T11:36:03;2.27;;;2.17;;
9940;SDS011;5009;50.656;7.188;2024-03-02T11:38:32;2.20;;;2.00;;
9940;SDS011;5009;50.656;7.188;2024-03-02T11:41:16;2.70;;;1.80;;
9940;SDS011;5009;50.656;7.188;2024-03-02T11:43:43;2.10;;;1.90;;
9940;SDS011;5009;50.656;7.188;2024-03-02T11:46:09;2.40;;;1.70;;
9940;SDS011;5009;50.656;7.188;2024-03-02T11:48:36;2.40;;;2.20;;
9940;SDS011;5009;50.656;7.188;2024-03-02T11:51:03;2.23;;;2.03;;
9940;SDS011;5009;50.656;7.188;2024-03-02T11:53:29;1.90;;;1.80;;
9940;SDS011;5009;50.656;7.188;2024-03-02T11:55:57;4.43;;;4.03;;
9940;SDS011;5009;50.656;7.188;2024-03-02T11:58:24;2.73;;;2.53;;
9940;SDS011;5009;50.656;7.188;2024-03-02T12:00:51;2.47;;;2.20;;
9940;SDS011;5009;50.656;7.188;2024-03-02T12:03:22;2.80;;;2.10;;
9940;SDS011;5009;50.656;7.188;2024-03-02T12:05:54;1.83;;;1.73;;
9940;SDS011;5009;50.656;7.188;2024-03-02T12:08:20;1.83;;;1.73;;
9940;SDS011;5009;50.656;7.188;2024-03-02T12:10:58;1.67;;;1.57;;
9940;SDS011;5009;50.656;7.188;2024-03-02T12:13:25;3.70;;;1.93;;
9940;SDS011;5009;50.656;7.188;2024-03-02T12:15:52;2.60;;;2.27;;
9940;SDS011;5009;50.656;7.188;2024-03-02T12:18:20;3.13;;;1.87;;
9940;SDS011;5009;50.656;7.188;2024-03-02T12:20:45;1.70;;;1.60;;
9940;SDS011;5009;50.656;7.188;2024-03-02T12:23:11;3.90;;;2.20;;
9940;SDS011;5009;50.656;7.188;2024-03-02T12:25:36;1.80;;;1.63;;
9940;SDS011;5009;50.656;7.188;2024-03-02T12:28:02;2.60;;;1.60;;
9940;SDS011;5009;50.656;7.188;2024-03-02T12:30:29;1.70;;;1.60;;
9940;SDS011;5009;50.656;7.188;2024-03-02T12:32:56;2.10;;;1.60;;
9940;SDS011;5009;50.656;7.188;2024-03-02T12:35:21;1.80;;;1.37;;
9940;SDS011;5009;50.656;7.188;2024-03-02T12:37:49;1.80;;;1.70;;
9940;SDS011;5009;50.656;7.188;2024-03-02T12:40:17;1.97;;;1.40;;
9940;SDS011;5009;50.656;7.188;2024-03-02T12:42:43;1.43;;;1.43;;
9940;SDS011;5009;50.656;7.188;2024-03-02T12:45:10;2.03;;;1.50;;
9940;SDS011;5009;50.656;7.188;2024-03-02T12:47:36;2.27;;;2.10;;
9940;SDS011;5009;50.656;7.188;2024-03-02T12:50:03;1.77;;;1.67;;
9940;SDS011;5009;50.656;7.188;2024-03-02T12:52:29;2.00;;;1.87;;
9940;SDS011;5009;50.656;7.188;2024-03-02T12:54:57;1.70;;;1.60;;
9940;SDS011;5009;50.656;7.188;2024-03-02T12:57:30;1.90;;;1.80;;
9940;SDS011;5009;50.656;7.188;2024-03-02T13:00:00;3.57;;;1.80;;
9940;SDS011;5009;50.656;7.188;2024-03-02T13:02:36;2.90;;;1.70;;
9940;SDS011;5009;50.656;7.188;2024-03-02T13:05:06;2.10;;;1.20;;
9940;SDS011;5009;50.656;7.188;2024-03-02T13:07:36;2.00;;;1.40;;
9940;SDS011;5009;50.656;7.188;2024-03-02T13:10:02;1.63;;;1.53;;
9940;SDS011;5009;50.656;7.188;2024-03-02T13:12:28;1.70;;;1.60;;
9940;SDS011;5009;50.656;7.188;2024-03-02T13:14:55;3.13;;;1.63;;
9940;SDS011;5009;50.656;7.188;2024-03-02T13:17:23;2.00;;;1.80;;
9940;SDS011;5009;50.656;7.188;2024-03-02T13:19:53;2.30;;;1.63;;
9940;SDS011;5009;50.656;7.188;2024-03-02T13:22:19;2.93;;;1.60;;
9940;SDS011;5009;50.656;7.188;2024-03-02T13:24:45;1.80;;;1.60;;
9940;SDS011;5009;50.656;7.188;2024-03-02T13:27:10;1.93;;;1.80;;
9940;SDS011;5009;50.656;7.188;2024-03-02T13:29:36;1.70;;;1.60;;
9940;SDS011;5009;50.656;7.188;2024-03-02T13:32:02;1.37;;;1.27;;
9940;SDS011;5009;50.656;7.188;2024-03-02T13:34:28;1.40;;;1.30;;
9940;SDS011;5009;50.656;7.188;2024-03-02T13:36:53;2.63;;;1.33;;
9940;SDS011;5009;50.656;7.188;2024-03-02T13:39:19;1.73;;;1.47;;
9940;SDS011;5009;50.656;7.188;2024-03-02T13:41:44;2.03;;;1.80;;
9940;SDS011;5009;50.656;7.188;2024-03-02T13:44:17;10.03;;;7.03;;
9940;SDS011;5009;50.656;7.188;2024-03-02T13:46:43;4.03;;;2.50;;
9940;SDS011;5009;50.656;7.188;2024-03-02T13:49:10;2.03;;;1.93;;
9940;SDS011;5009;50.656;7.188;2024-03-02T13:51:36;2.40;;;2.20;;
9940;SDS011;5009;50.656;7.188;2024-03-02T13:54:02;3.00;;;2.70;;
9940;SDS011;5009;50.656;7.188;2024-03-02T13:56:28;1.80;;;1.70;;
9940;SDS011;5009;50.656;7.188;2024-03-02T13:58:54;1.57;;;1.47;;
9940;SDS011;5009;50.656;7.188;2024-03-02T14:01:20;1.87;;;1.30;;
9940;SDS011;5009;50.656;7.188;2024-03-02T14:03:46;1.50;;;1.40;;
9940;SDS011;5009;50.656;7.188;2024-03-02T14:06:11;1.93;;;1.70;;
9940;SDS011;5009;50.656;7.188;2024-03-02T14:08:37;2.63;;;1.80;;
9940;SDS011;5009;50.656;7.188;2024-03-02T14:11:03;1.90;;;1.80;;
9940;SDS011;5009;50.656;7.188;2024-03-02T14:13:28;1.90;;;1.80;;
9940;SDS011;5009;50.656;7.188;2024-03-02T14:15:54;2.20;;;2.00;;
9940;SDS011;5009;50.656;7.188;2024-03-02T14:18:20;1.87;;;1.77;;
9940;SDS011;5009;50.656;7.188;2024-03-02T14:20:46;1.90;;;1.80;;
9940;SDS011;5009;50.656;7.188;2024-03-02T14:23:17;1.77;;;1.67;;
9940;SDS011;5009;50.656;7.188;2024-03-02T14:25:43;5.20;;;1.63;;
9940;SDS011;5009;50.656;7.188;2024-03-02T14:28:08;2.00;;;1.80;;
9940;SDS011;5009;50.656;7.188;2024-03-02T14:30:34;2.07;;;1.97;;
9940;SDS011;5009;50.656;7.188;2024-03-02T14:33:00;2.00;;;1.90;;
9940;SDS011;5009;50.656;7.188;2024-03-02T14:35:25;2.37;;;2.17;;
9940;SDS011;5009;50.656;7.188;2024-03-02T14:37:51;1.93;;;1.73;;
9940;SDS011;5009;50.656;7.188;2024-03-02T14:40:17;2.10;;;2.00;;
9940;SDS011;5009;50.656;7.188;2024-03-02T14:42:43;2.10;;;1.93;;
9940;SDS011;5009;50.656;7.188;2024-03-02T14:45:12;2.90;;;2.17;;
9940;SDS011;5009;50.656;7.188;2024-03-02T14:47:38;4.03;;;2.27;;
9940;SDS011;5009;50.656;7.188;2024-03-02T14:50:03;2.50;;;2.30;;
9940;SDS011;5009;50.656;7.188;2024-03-02T14:52:33;2.07;;;1.97;;
9940;SDS011;5009;50.656;7.188;2024-03-02T14:54:59;1.93;;;1.73;;
9940;SDS011;5009;50.656;7.188;2024-03-02T14:57:25;2.03;;;1.80;;
9940;SDS011;5009;50.656;7.188;2024-03-02T14:59:50;2.10;;;1.67;;
9940;SDS011;5009;50.656;7.188;2024-03-02T15:02:16;1.83;;;1.73;;
9940;SDS011;5009;50.656;7.188;2024-03-02T15:04:42;2.67;;;1.67;;
9940;SDS011;5009;50.656;7.188;2024-03-02T15:07:09;1.80;;;1.70;;
9940;SDS011;5009;50.656;7.188;2024-03-02T15:09:35;2.47;;;1.93;;
9940;SDS011;5009;50.656;7.188;2024-03-02T15:12:02;2.13;;;1.80;;
9940;SDS011;5009;50.656;7.188;2024-03-02T15:14:28;2.10;;;1.40;;
9940;SDS011;5009;50.656;7.188;2024-03-02T15:16:53;1.77;;;1.67;;
9940;SDS011;5009;50.656;7.188;2024-03-02T15:19:21;1.40;;;1.30;;
9940;SDS011;5009;50.656;7.188;2024-03-02T15:21:46;1.33;;;1.33;;
9940;SDS011;5009;50.656;7.188;2024-03-02T15:24:12;1.60;;;1.50;;
9940;SDS011;5009;50.656;7.188;2024-03-02T15:26:37;1.70;;;1.60;;
9940;SDS011;5009;50.656;7.188;2024-03-02T15:29:03;1.63;;;1.53;;
9940;SDS011;5009;50.656;7.188;2024-03-02T15:31:28;2.43;;;1.60;;
9940;SDS011;5009;50.656;7.188;2024-03-02T15:33:54;1.43;;;1.20;;
9940;SDS011;5009;50.656;7.188;2024-03-02T15:36:21;1.80;;;1.70;;
9940;SDS011;5009;50.656;7.188;2024-03-02T15:38:47;3.27;;;1.63;;
9940;SDS011;5009;50.656;7.188;2024-03-02T15:41:13;2.20;;;2.10;;
9940;SDS011;5009;50.656;7.188;2024-03-02T15:43:39;1.90;;;1.80;;
9940;SDS011;5009;50.656;7.188;2024-03-02T15:46:06;3.00;;;2.63;;
9940;SDS011;5009;50.656;7.188;2024-03-02T15:48:31;2.27;;;2.17;;
9940;SDS011;5009;50.656;7.188;2024-03-02T15:50:57;2.50;;;2.40;;
9940;SDS011;5009;50.656;7.188;2024-03-02T15:53:23;2.20;;;2.10;;
9940;SDS011;5009;50.656;7.188;2024-03-02T15:55:49;4.77;;;2.80;;
9940;SDS011;5009;50.656;7.188;2024-03-02T15:58:15;2.60;;;2.40;;
9940;SDS011;5009;50.656;7.188;2024-03-02T16:00:41;1.97;;;1.83;;
9940;SDS011;5009;50.656;7.188;2024-03-02T16:03:06;5.00;;;4.00;;
9940;SDS011;5009;50.656;7.188;2024-03-02T16:05:32;1.90;;;1.80;;
9940;SDS011;5009;50.656;7.188;2024-03-02T16:07:58;1.83;;;1.73;;
9940;SDS011;5009;50.656;7.188;2024-03-02T16:10:23;3.40;;;2.80;;
9940;SDS011;5009;50.656;7.188;2024-03-02T16:12:50;5.43;;;1.93;;
9940;SDS011;5009;50.656;7.188;2024-03-02T16:15:17;2.30;;;1.97;;
9940;SDS011;5009;50.656;7.188;2024-03-02T16:17:42;2.13;;;2.03;;
9940;SDS011;5009;50.656;7.188;2024-03-02T16:20:08;2.63;;;2.13;;
9940;SDS011;5009;50.656;7.188;2024-03-02T16:22:35;3.03;;;2.20;;
9940;SDS011;5009;50.656;7.188;2024-03-02T16:25:01;2.23;;;2.03;;
9940;SDS011;5009;50.656;7.188;2024-03-02T16:27:26;2.00;;;1.90;;
9940;SDS011;5009;50.656;7.188;2024-03-02T16:29:52;1.80;;;1.70;;
9940;SDS011;5009;50.656;7.188;2024-03-02T16:32:19;2.53;;;1.90;;
9940;SDS011;5009;50.656;7.188;2024-03-02T16:34:45;2.80;;;1.97;;
9940;SDS011;5009;50.656;7.188;2024-03-02T16:37:11;2.13;;;2.00;;
9940;SDS011;5009;50.656;7.188;2024-03-02T16:39:36;1.80;;;1.70;;
9940;SDS011;5009;50.656;7.188;2024-03-02T16:42:02;3.27;;;2.50;;
9940;SDS011;5009;50.656;7.188;2024-03-02T16:44:28;3.30;;;2.07;;
9940;SDS011;5009;50.656;7.188;2024-03-02T16:46:54;2.40;;;2.20;;
9940;SDS011;5009;50.656;7.188;2024-03-02T16:49:19;2.70;;;2.50;;
9940;SDS011;5009;50.656;7.188;2024-03-02T16:51:45;2.30;;;2.10;;
9940;SDS011;5009;50.656;7.188;2024-03-02T16:54:11;4.03;;;3.73;;
9940;SDS011;5009;50.656;7.188;2024-03-02T16:56:38;3.33;;;3.10;;
9940;SDS011;5009;50.656;7.188;2024-03-02T16:59:07;3.77;;;2.50;;
9940;SDS011;5009;50.656;7.188;2024-03-02T17:01:33;2.80;;;2.60;;
9940;SDS011;5009;50.656;7.188;2024-03-02T17:03:59;5.33;;;4.80;;
9940;SDS011;5009;50.656;7.188;2024-03-02T17:06:26;7.97;;;6.90;;
9940;SDS011;5009;50.656;7.188;2024-03-02T17:08:51;6.47;;;5.83;;
9940;SDS011;5009;50.656;7.188;2024-03-02T17:11:17;7.53;;;6.83;;
9940;SDS011;5009;50.656;7.188;2024-03-02T17:13:43;10.00;;;9.00;;
9940;SDS011;5009;50.656;7.188;2024-03-02T17:16:10;7.70;;;6.97;;
9940;SDS011;5009;50.656;7.188;2024-03-02T17:18:36;6.27;;;5.77;;
9940;SDS011;5009;50.656;7.188;2024-03-02T17:21:02;11.23;;;10.03;;
9940;SDS011;5009;50.656;7.188;2024-03-02T17:23:28;6.87;;;6.17;;
9940;SDS011;5009;50.656;7.188;2024-03-02T17:25:56;3.30;;;3.00;;
9940;SDS011;5009;50.656;7.188;2024-03-02T17:28:24;2.60;;;2.40;;
9940;SDS011;5009;50.656;7.188;2024-03-02T17:30:54;3.20;;;2.90;;
9940;SDS011;5009;50.656;7.188;2024-03-02T17:33:20;11.00;;;8.63;;
9940;SDS011;5009;50.656;7.188;2024-03-02T17:35:46;7.67;;;6.87;;
9940;SDS011;5009;50.656;7.188;2024-03-02T17:38:13;4.30;;;3.80;;
9940;SDS011;5009;50.656;7.188;2024-03-02T17:40:39;2.77;;;2.57;;
9940;SDS011;5009;50.656;7.188;2024-03-02T17:43:04;2.17;;;1.97;;
9940;SDS011;5009;50.656;7.188;2024-03-02T17:45:30;2.63;;;2.53;;
9940;SDS011;5009;50.656;7.188;2024-03-02T17:47:56;2.20;;;2.10;;
9940;SDS011;5009;50.656;7.188;2024-03-02T17:50:21;2.63;;;2.40;;
9940;SDS011;5009;50.656;7.188;2024-03-02T17:52:47;3.33;;;3.13;;
9940;SDS011;5009;50.656;7.188;2024-03-02T17:55:13;2.30;;;2.07;;
9940;SDS011;5009;50.656;7.188;2024-03-02T17:57:39;3.10;;;2.77;;
9940;SDS011;5009;50.656;7.188;2024-03-02T18:00:05;2.63;;;2.43;;
9940;SDS011;5009;50.656;7.188;2024-03-02T18:02:31;2.13;;;2.03;;
9940;SDS011;5009;50.656;7.188;2024-03-02T18:04:58;2.53;;;2.33;;
9940;SDS011;5009;50.656;7.188;2024-03-02T18:07:24;2.40;;;2.20;;
9940;SDS011;5009;50.656;7.188;2024-03-02T18:09:50;2.43;;;2.23;;
9940;SDS011;5009;50.656;7.188;2024-03-02T18:12:15;2.40;;;1.97;;
9940;SDS011;5009;50.656;7.188;2024-03-02T18:14:41;2.43;;;2.23;;
9940;SDS011;5009;50.656;7.188;2024-03-02T18:17:06;2.20;;;2.03;;
9940;SDS011;5009;50.656;7.188;2024-03-02T18:19:32;2.70;;;2.50;;
9940;SDS011;5009;50.656;7.188;2024-03-02T18:21:57;2.80;;;2.60;;
9940;SDS011;5009;50.656;7.188;2024-03-02T18:24:23;2.57;;;2.20;;
9940;SDS011;5009;50.656;7.188;2024-03-02T18:26:52;2.23;;;2.13;;
9940;SDS011;5009;50.656;7.188;2024-03-02T18:29:18;5.60;;;2.47;;
9940;SDS011;5009;50.656;7.188;2024-03-02T18:31:44;2.50;;;2.30;;
9940;SDS011;5009;50.656;7.188;2024-03-02T18:34:09;3.27;;;2.50;;
9940;SDS011;5009;50.656;7.188;2024-03-02T18:36:35;2.73;;;2.53;;
9940;SDS011;5009;50.656;7.188;2024-03-02T18:39:00;2.57;;;2.37;;
9940;SDS011;5009;50.656;7.188;2024-03-02T18:41:26;2.30;;;2.20;;
9940;SDS011;5009;50.656;7.188;2024-03-02T18:43:52;2.77;;;2.57;;
9940;SDS011;5009;50.656;7.188;2024-03-02T18:46:17;2.60;;;2.40;;
9940;SDS011;5009;50.656;7.188;2024-03-02T18:48:43;3.50;;;3.20;;
9940;SDS011;5009;50.656;7.188;2024-03-02T18:51:09;4.03;;;3.73;;
9940;SDS011;5009;50.656;7.188;2024-03-02T18:53:35;3.00;;;2.80;;
9940;SDS011;5009;50.656;7.188;2024-03-02T18:56:01;5.13;;;4.10;;
9940;SDS011;5009;50.656;7.188;2024-03-02T18:58:29;4.07;;;3.67;;
9940;SDS011;5009;50.656;7.188;2024-03-02T19:00:55;4.40;;;4.00;;
9940;SDS011;5009;50.656;7.188;2024-03-02T19:03:21;4.63;;;3.70;;
9940;SDS011;5009;50.656;7.188;2024-03-02T19:05:46;4.27;;;3.97;;
9940;SDS011;5009;50.656;7.188;2024-03-02T19:08:12;5.00;;;4.60;;
9940;SDS011;5009;50.656;7.188;2024-03-02T19:10:42;5.43;;;4.93;;
9940;SDS011;5009;50.656;7.188;2024-03-02T19:13:08;5.17;;;4.67;;
9940;SDS011;5009;50.656;7.188;2024-03-02T19:15:33;3.80;;;3.20;;
9940;SDS011;5009;50.656;7.188;2024-03-02T19:17:59;3.90;;;3.23;;
9940;SDS011;5009;50.656;7.188;2024-03-02T19:20:24;4.80;;;3.30;;
9940;SDS011;5009;50.656;7.188;2024-03-02T19:22:50;4.20;;;3.27;;
9940;SDS011;5009;50.656;7.188;2024-03-02T19:25:16;3.60;;;3.30;;
9940;SDS011;5009;50.656;7.188;2024-03-02T19:27:41;3.27;;;3.00;;
9940;SDS011;5009;50.656;7.188;2024-03-02T19:30:07;4.13;;;3.70;;
9940;SDS011;5009;50.656;7.188;2024-03-02T19:32:34;3.90;;;3.50;;
9940;SDS011;5009;50.656;7.188;2024-03-02T19:35:00;5.57;;;4.73;;
9940;SDS011;5009;50.656;7.188;2024-03-02T19:37:26;6.90;;;6.20;;
9940;SDS011;5009;50.656;7.188;2024-03-02T19:39:51;5.53;;;5.03;;
9940;SDS011;5009;50.656;7.188;2024-03-02T19:42:17;4.83;;;4.43;;
9940;SDS011;5009;50.656;7.188;2024-03-02T19:44:43;6.67;;;4.80;;
9940;SDS011;5009;50.656;7.188;2024-03-02T19:47:09;4.63;;;4.23;;
9940;SDS011;5009;50.656;7.188;2024-03-02T19:49:44;9.43;;;8.40;;
9940;SDS011;5009;50.656;7.188;2024-03-02T19:52:11;7.87;;;6.20;;
9940;SDS011;5009;50.656;7.188;2024-03-02T19:54:36;4.97;;;4.40;;
9940;SDS011;5009;50.656;7.188;2024-03-02T19:57:02;5.10;;;4.57;;
9940;SDS011;5009;50.656;7.188;2024-03-02T19:59:28;5.67;;;3.83;;
9940;SDS011;5009;50.656;7.188;2024-03-02T20:01:54;4.17;;;3.77;;
9940;SDS011;5009;50.656;7.188;2024-03-02T20:04:19;5.23;;;4.03;;
9940;SDS011;5009;50.656;7.188;2024-03-02T20:06:51;4.00;;;3.70;;
9940;SDS011;5009;50.656;7.188;2024-03-02T20:09:18;4.37;;;3.97;;
9940;SDS011;5009;50.656;7.188;2024-03-02T20:11:43;4.83;;;3.57;;
9940;SDS011;5009;50.656;7.188;2024-03-02T20:14:09;4.47;;;3.97;;